Aeroporto :
LOGIN :

Iscrizione | Disclaimer

   EN    FR    IT 

 










Sommario :    VFR   VFR Marginale   IFR   IFR Intensivo   IFR Molto Intensivo
Visibilità : 
Base nubi : 
>= 8 km
>= 3000ft
5 / 8 km
1000 / 3000 ft
1500m / 5 km
500 / 1000 ft
800 / 1500m
200 / 500 ft
< 800m
< 200 ft
Simboli :   Temporali  Nebbia  Neve Forte  Precipitazioni Forti  Vento > 20 kt
SIGMETs :   Varie  Temporali  Ghiacco  Turbolenza  Onda orograficha  Ceneri Vulcaniche






- Altitudine del aeroporto : 348 ft
- Codice IATA : STN


EGSS - London Stansted

ULTIMO METAR :
  • 140150Z AUTO 35006KT 0450 R04/0900 FG VV/// 17/17 Q1013

METARs OBSOLETI :
  • 140120Z AUTO 35007KT 310V020 0450 R04/1100 FG OVC002/// //////CB 17/17 Q1013
  • 140050Z AUTO 35009KT 310V010 1300 R04/1400 BR OVC001/// //////CB 17/17 Q1013
  • 140020Z AUTO 35009KT 0900 R04/P1500 -RADZ FG VV/// 17/17 Q1013
  • 132350Z AUTO 35010KT 0450 R04/0800 -RADZ FG VV/// 17/17 Q1013 RERA REDZ
  • 132320Z AUTO 35008KT 0400 R04/0800 RADZ FG VV/// 17/17 Q1013 RERA

TAF TAF EGSS
Valido dal 14 a 00 ore il 15 a 06 ore UTC


132311Z 1400/1506 01008KT 3000 BR SCT002 BKN005
TEMPO 1400/1408 0300 FG OVC000
TEMPO 1400/1506 SHRA
PROB30
TEMPO 1400/1403 +TSRA
BECMG 1408/1411 7000 NSW SCT007 BKN013
BECMG 1411/1414 9999 SCT020
PROB30
TEMPO 1411/1506 2000 +TSRAGR
TEMPO 1414/1424 7000 BKN012
PROB40 1421/1506 BKN003
ATIS : +44 1279 669 325



MetMap, La meteo Aeronautica in un colpo d'occhio ! - Copyright ORBIFLY Dicembre 2007 - Disclaimer

ORBIFLY MET'MAP TEAM :

Programmazione e sviluppo : Alexandra Zaïnal
Concezione : Baudouin d'Aumeries
Aiuto per la programmazione : Marc-Olivier Méhu
Supporto tecnico e logistico : Manuel Goepfert
Aiuto per la traduzione : Arnaldo La Scala

Contatto : metmap@orbifly.com




FONTI E CREDITI :

   NOAA